AMIS Telekom d.o.o. Speed Test Log

Minimum

Min 1.17 Mbps : 0.48 Mbps

Median

Median 12.35 Mbps : 3.07 Mbps

Maximum

Max 75.2 Mbps : 32.73 Mbps

Minimum

Minimum: 1.17 Mbps : 0.48 Mbps

Median

Median: 12.35 Mbps : 3.07 Mbps

Maximum

Maximum: 75.2 Mbps : 32.73 Mbps
Averages    
1 to 25 of 6071** for Host AMIS Telekom d.o.o.
Time
Speed Size    User ConnectID  TestID   
5/9/17 12:25:15 pm 75.2 Mbps 9.4 MB/s 150 MB1725231111259 HR npHRZ3qGe 
5/9/17 12:23:29 pm 71.94 Mbps 8.99 MB/s 43 MB1725231111259 HR q94ObU6Tl 
5/9/17 11:09:33 am 2.56 Mbps 0.32 MB/s 4.3 MB17252246485216 HR YlUMIe5O1 
5/7/17 7:24:38 pm 32.73 Mbps 4.09 MB/s 22.8 MB17252247308171 HR SMxOuCaTv 
5/7/17 7:23:56 pm 51.75 Mbps 6.47 MB/s 31.9 MB17252247308171 HR xQHDz4W6f 
5/7/17 4:10:51 pm 14.38 Mbps 1.8 MB/s 19 MB17252245659694 HR H1mM09cSs 
5/6/17 7:14:08 pm 5.53 Mbps 0.69 MB/s 6.3 MB172522884989 HR rnEqD3V91 
5/5/17 7:24:25 pm 1.1 Mbps 0.14 MB/s 1.4 MB1725224535053 HR FSeAPJ80Q 
5/5/17 7:23:48 pm 16.36 Mbps 2.05 MB/s 19.1 MB1725224535053 HR yB4P8fVX3 
5/5/17 1:05:38 pm 16.76 Mbps 2.09 MB/s 43 MB17252247308171 HR RjgkQyiJT 
5/4/17 8:12:54 pm 1.1 Mbps 0.14 MB/s 1.3 MB1725232490491 HR xuvSsbdV5 
5/4/17 7:49:28 pm 3 Mbps 0.37 MB/s 3 MB1725231025240 HR LZ0sCueiM 
5/4/17 7:48:32 pm 0.48 Mbps 0.06 MB/s 480 kB1725231025240 HR Y7RBZWuUF 
5/4/17 7:47:48 pm 1.17 Mbps 0.15 MB/s 1.3 MB1725231025240 HR 5sV4Ha2yi 
5/4/17 7:30:27 pm 1.27 Mbps 0.16 MB/s 1.3 MB172522884439 HR zP5QWseAU 
5/3/17 8:19:07 pm 12.07 Mbps 1.51 MB/s 6.3 MB172522730651 HR ClgGj0EcA 
5/3/17 8:18:18 pm 1.16 Mbps 0.15 MB/s 1.2 MB172522730651 HR ofd0sTAeD 
5/3/17 5:15:00 pm 8.2 Mbps 1.03 MB/s 6.3 MB17252245566615 HR TC6egZbJi 
5/3/17 1:42:31 pm 22.14 Mbps 2.77 MB/s 42.9 MB1725227632365 HR EGTcAqFid 
5/3/17 12:55:40 pm 2.63 Mbps 0.33 MB/s 4.5 MB17252245666939 HR fY6ugm3Q1 
5/2/17 11:31:22 pm 12.35 Mbps 1.54 MB/s 30.6 MB1725224566691 HR KCAPyRjcJ 
5/2/17 6:21:43 pm 3.07 Mbps 0.38 MB/s 2.5 MB172522455813 HR 4lSqoVMrG 
5/2/17 3:06:40 pm 8.89 Mbps 1.11 MB/s 6.3 MBblochert1725224691042 HR jn4Q20Ldw 
5/2/17 1:29:51 pm 4.92 Mbps 0.62 MB/s 2.4 MB1725230284820 HR 9khtIeP7w 
5/2/17 1:29:24 pm 16.97 Mbps 2.12 MB/s 31.6 MB1725230284820 HR fb0W1HSeu 
  
** Partial Results: The most recent results have been displayed. Results over 50 Mbps are highlighted.
Graphed results calculation
Displaying Internet Speed Test results for Host AMIS Telekom d.o.o.